createdAt,value
2022-11-29T00:02:13.961Z,19.20
2022-11-29T00:04:44.725Z,19.10
2022-11-29T00:07:14.112Z,19.10
2022-11-29T00:09:43.394Z,19.10
2022-11-29T00:12:15.813Z,19.10
2022-11-29T00:14:45.187Z,19.10
2022-11-29T00:17:14.424Z,19.00
2022-11-29T00:19:45.317Z,19.00
2022-11-29T00:22:14.551Z,19.00
2022-11-29T00:24:44.062Z,19.00
2022-11-29T00:27:13.408Z,19.00
2022-11-29T00:29:42.486Z,19.00
2022-11-29T00:32:11.969Z,19.00
2022-11-29T00:34:41.413Z,19.00
2022-11-29T00:37:12.101Z,19.00
2022-11-29T00:39:41.262Z,18.90
2022-11-29T00:42:10.322Z,18.90
2022-11-29T00:44:39.428Z,19.00
2022-11-29T00:47:08.555Z,18.90
2022-11-29T00:49:37.704Z,18.90
2022-11-29T00:52:07.154Z,18.90
2022-11-29T00:54:37.718Z,18.90
2022-11-29T00:57:06.868Z,18.90
2022-11-29T00:59:36.002Z,18.80
2022-11-29T01:02:05.171Z,18.80
2022-11-29T01:04:34.505Z,18.80
2022-11-29T01:07:03.656Z,18.80
2022-11-29T01:09:32.740Z,18.80
2022-11-29T01:12:03.278Z,18.80
2022-11-29T01:14:32.579Z,18.80
2022-11-29T01:17:01.902Z,18.80
2022-11-29T01:19:31.081Z,18.80
2022-11-29T01:22:00.180Z,18.70
2022-11-29T01:24:29.988Z,18.80
2022-11-29T01:26:59.113Z,18.80
2022-11-29T01:29:29.798Z,18.70
2022-11-29T01:31:58.922Z,18.70
2022-11-29T01:34:28.105Z,18.70
2022-11-29T01:36:57.258Z,18.70
2022-11-29T01:39:26.443Z,18.70
2022-11-29T01:41:55.572Z,18.70
2022-11-29T01:45:01.926Z,18.70
2022-11-29T01:47:32.964Z,18.70
2022-11-29T01:50:04.154Z,18.70
2022-11-29T01:52:34.765Z,18.70
2022-11-29T01:55:07.140Z,18.60
2022-11-29T01:57:38.136Z,18.60
2022-11-29T02:00:10.066Z,18.60
2022-11-29T02:02:45.721Z,18.60
2022-11-29T02:05:18.262Z,18.60
2022-11-29T02:07:51.189Z,18.60
2022-11-29T02:10:22.993Z,18.60
2022-11-29T02:13:01.489Z,18.50
2022-11-29T02:15:41.364Z,18.60
2022-11-29T02:18:14.864Z,18.60
2022-11-29T02:21:12.533Z,18.60
2022-11-29T02:24:14.054Z,18.60
2022-11-29T02:27:12.907Z,18.60
2022-11-29T02:30:13.708Z,18.50
2022-11-29T02:33:15.764Z,18.50
2022-11-29T02:36:17.190Z,18.50
2022-11-29T02:39:24.250Z,18.50
2022-11-29T02:42:22.245Z,18.50
2022-11-29T02:45:02.599Z,18.50
2022-11-29T02:47:46.575Z,18.50
2022-11-29T02:50:26.036Z,18.50
2022-11-29T02:53:04.274Z,18.50
2022-11-29T02:55:40.826Z,18.50
2022-11-29T02:58:20.563Z,18.40
2022-11-29T03:00:58.457Z,18.40
2022-11-29T03:03:34.546Z,18.40
2022-11-29T03:06:12.770Z,18.40
2022-11-29T03:08:54.313Z,18.40
2022-11-29T03:11:34.110Z,18.40
2022-11-29T03:14:15.804Z,18.40
2022-11-29T03:16:52.715Z,18.40
2022-11-29T03:19:48.536Z,18.40
2022-11-29T03:22:26.704Z,18.40
2022-11-29T03:25:04.188Z,18.40
2022-11-29T03:27:42.525Z,18.40
2022-11-29T03:30:14.180Z,18.30
2022-11-29T03:32:49.234Z,18.30
2022-11-29T03:35:26.142Z,18.30
2022-11-29T03:38:03.890Z,18.30
2022-11-29T03:40:41.508Z,18.30
2022-11-29T03:43:15.576Z,18.30
2022-11-29T03:45:53.171Z,18.30
2022-11-29T03:48:29.188Z,18.30
2022-11-29T03:51:03.061Z,18.30
2022-11-29T03:53:40.584Z,18.30
2022-11-29T03:56:29.402Z,18.30
2022-11-29T03:59:12.445Z,18.30
2022-11-29T04:02:36.117Z,18.30
2022-11-29T04:05:29.985Z,18.30
2022-11-29T04:08:36.333Z,18.30
2022-11-29T04:11:37.344Z,18.20
2022-11-29T04:14:31.740Z,18.20
2022-11-29T04:17:28.145Z,18.20
2022-11-29T04:20:39.727Z,18.20
2022-11-29T04:23:48.762Z,18.20
2022-11-29T04:26:45.054Z,18.20
2022-11-29T04:29:39.439Z,18.20
2022-11-29T04:32:37.510Z,18.10
2022-11-29T04:35:21.752Z,18.10
2022-11-29T04:38:16.531Z,18.10
2022-11-29T04:41:03.842Z,18.10
2022-11-29T04:43:56.347Z,18.10
2022-11-29T04:46:42.815Z,18.10
2022-11-29T04:49:48.772Z,18.10
2022-11-29T04:52:33.117Z,18.10
2022-11-29T04:55:20.917Z,18.10
2022-11-29T04:58:02.924Z,18.10
2022-11-29T05:00:41.178Z,18.10
2022-11-29T05:03:18.286Z,18.10
2022-11-29T05:05:54.103Z,18.10
2022-11-29T05:08:34.597Z,18.10
2022-11-29T05:11:13.030Z,18.10
2022-11-29T05:13:52.454Z,18.10
2022-11-29T05:16:39.089Z,18.00
2022-11-29T05:19:29.951Z,18.10
2022-11-29T05:22:10.458Z,18.10
2022-11-29T05:24:53.799Z,18.10
2022-11-29T05:27:33.107Z,18.10
2022-11-29T05:30:07.753Z,18.10
2022-11-29T05:32:47.124Z,18.10
2022-11-29T05:35:40.517Z,18.10
2022-11-29T05:38:21.474Z,18.10
2022-11-29T05:41:03.275Z,18.10
2022-11-29T05:43:49.885Z,18.10
2022-11-29T05:46:24.506Z,18.10
2022-11-29T05:49:05.521Z,18.10
2022-11-29T05:51:45.444Z,18.10
2022-11-29T05:54:28.057Z,18.10
2022-11-29T05:57:09.750Z,18.10
2022-11-29T05:59:40.436Z,18.10
2022-11-29T06:02:24.267Z,18.10
2022-11-29T06:05:06.774Z,18.10
2022-11-29T06:07:42.925Z,18.00
2022-11-29T06:10:17.839Z,18.00
2022-11-29T06:12:56.516Z,18.00
2022-11-29T06:15:59.279Z,18.00
2022-11-29T06:18:46.645Z,18.00
2022-11-29T06:21:28.018Z,18.00
2022-11-29T06:24:26.075Z,18.00
2022-11-29T06:27:22.148Z,18.00
2022-11-29T06:29:59.102Z,18.00
2022-11-29T06:32:36.997Z,18.00
2022-11-29T06:35:11.341Z,18.00
2022-11-29T06:37:45.657Z,18.00
2022-11-29T06:40:17.373Z,18.00
2022-11-29T06:42:46.609Z,18.00
2022-11-29T06:45:17.419Z,18.00
2022-11-29T06:47:51.706Z,18.00
2022-11-29T06:50:38.004Z,18.00
2022-11-29T06:53:17.966Z,18.00
2022-11-29T06:55:54.238Z,18.00
2022-11-29T06:58:37.271Z,18.00
2022-11-29T07:01:17.202Z,18.00
2022-11-29T07:04:08.926Z,18.00
2022-11-29T07:06:39.230Z,18.00
2022-11-29T07:09:15.131Z,18.00
2022-11-29T07:11:44.912Z,17.90
2022-11-29T07:14:14.938Z,17.90
2022-11-29T07:16:57.147Z,17.90
2022-11-29T07:19:38.198Z,17.90
2022-11-29T07:22:20.396Z,17.90
2022-11-29T07:25:01.268Z,17.90
2022-11-29T07:27:37.573Z,17.90
2022-11-29T07:30:14.031Z,17.90
2022-11-29T07:33:00.559Z,17.90
2022-11-29T07:35:38.775Z,17.90
2022-11-29T07:38:18.661Z,17.90
2022-11-29T07:40:56.938Z,17.90
2022-11-29T07:43:38.220Z,17.90
2022-11-29T07:46:07.469Z,17.90
2022-11-29T07:48:36.609Z,17.90
2022-11-29T07:51:06.030Z,17.90
2022-11-29T07:53:41.359Z,17.90
2022-11-29T07:56:12.427Z,17.90
2022-11-29T07:58:41.719Z,17.80
2022-11-29T08:01:11.047Z,17.80
2022-11-29T08:03:42.247Z,17.80
2022-11-29T08:06:11.529Z,17.80
2022-11-29T08:08:43.937Z,17.80
2022-11-29T08:11:16.074Z,17.80
2022-11-29T08:13:45.382Z,17.80
2022-11-29T08:16:18.174Z,17.80
2022-11-29T08:18:47.383Z,17.80
2022-11-29T08:21:18.398Z,17.80
2022-11-29T08:23:48.253Z,17.80
2022-11-29T08:26:20.270Z,17.80
2022-11-29T08:28:53.019Z,17.80
2022-11-29T08:31:22.556Z,17.80
2022-11-29T08:33:51.782Z,17.70
2022-11-29T08:36:21.983Z,17.70
2022-11-29T08:38:55.825Z,17.70
2022-11-29T08:41:32.341Z,17.70
2022-11-29T08:44:01.571Z,17.70
2022-11-29T08:46:44.396Z,17.70
2022-11-29T08:49:13.577Z,17.70
2022-11-29T08:51:42.713Z,17.70
2022-11-29T08:54:10.931Z,17.70
2022-11-29T08:59:30.586Z,17.70
2022-11-29T09:01:59.721Z,17.70
2022-11-29T09:04:29.715Z,17.70
2022-11-29T09:06:58.827Z,17.70
2022-11-29T09:09:28.031Z,17.70
2022-11-29T09:11:58.520Z,17.70
2022-11-29T09:14:27.750Z,17.70
2022-11-29T09:16:56.973Z,17.60
2022-11-29T09:19:26.469Z,17.70
2022-11-29T09:21:55.752Z,17.70
2022-11-29T09:24:24.893Z,17.60
2022-11-29T09:26:54.533Z,17.60
2022-11-29T09:29:25.063Z,17.60
2022-11-29T09:31:54.167Z,17.60
2022-11-29T09:34:23.492Z,17.60
2022-11-29T09:36:52.643Z,17.60
2022-11-29T09:39:21.879Z,17.60
2022-11-29T09:42:11.209Z,17.60
2022-11-29T09:44:55.066Z,17.60
2022-11-29T09:47:35.536Z,17.60
2022-11-29T09:50:21.074Z,17.60
2022-11-29T09:53:01.990Z,17.60
2022-11-29T09:55:44.254Z,17.60
2022-11-29T09:58:20.944Z,17.60
2022-11-29T10:00:56.482Z,17.60
2022-11-29T10:03:30.327Z,17.60
2022-11-29T10:06:04.075Z,17.60
2022-11-29T10:08:38.187Z,17.60
2022-11-29T10:11:17.603Z,17.60
2022-11-29T10:13:52.101Z,17.60
2022-11-29T10:16:29.711Z,17.60
2022-11-29T10:19:06.820Z,17.50
2022-11-29T10:21:39.745Z,17.50
2022-11-29T10:24:14.904Z,17.50
2022-11-29T10:26:44.279Z,17.50
2022-11-29T10:29:15.821Z,17.50
2022-11-29T10:31:49.623Z,17.50
2022-11-29T10:34:21.211Z,17.50
2022-11-29T10:36:53.478Z,17.50
2022-11-29T10:39:27.483Z,17.50
2022-11-29T10:42:01.120Z,17.50
2022-11-29T10:44:32.744Z,17.50
2022-11-29T10:47:10.684Z,17.50
2022-11-29T10:49:40.959Z,17.50
2022-11-29T10:52:20.671Z,17.50
2022-11-29T10:54:51.143Z,17.50
2022-11-29T10:57:22.108Z,17.50
2022-11-29T11:00:04.293Z,17.50
2022-11-29T11:02:35.926Z,17.50
2022-11-29T11:05:13.236Z,17.50
2022-11-29T11:07:42.641Z,17.50
2022-11-29T11:10:26.668Z,17.50
2022-11-29T11:13:04.214Z,17.50
2022-11-29T11:15:34.384Z,17.50
2022-11-29T11:18:07.175Z,17.40
2022-11-29T11:20:40.634Z,17.50
2022-11-29T11:23:25.493Z,17.50
2022-11-29T11:25:59.241Z,17.50
2022-11-29T11:28:30.596Z,17.40
2022-11-29T11:31:03.211Z,17.40
2022-11-29T11:33:35.572Z,17.40
2022-11-29T11:36:12.710Z,17.40
2022-11-29T11:38:43.015Z,17.40
2022-11-29T11:41:20.857Z,17.40
2022-11-29T11:43:57.649Z,17.40
2022-11-29T11:46:48.421Z,17.40
2022-11-29T11:49:30.149Z,17.40
2022-11-29T11:52:01.020Z,17.40
2022-11-29T11:54:30.944Z,17.40
2022-11-29T11:57:01.118Z,17.40
2022-11-29T11:59:30.637Z,17.40
2022-11-29T12:01:59.741Z,17.40
2022-11-29T12:04:36.223Z,17.40
2022-11-29T12:07:13.567Z,17.40
2022-11-29T12:09:46.083Z,17.40
2022-11-29T12:12:20.505Z,17.40
2022-11-29T12:14:56.979Z,17.40
2022-11-29T12:17:34.579Z,17.40
2022-11-29T12:20:20.872Z,17.40
2022-11-29T12:23:07.569Z,17.40
2022-11-29T12:25:43.183Z,17.40
2022-11-29T12:28:17.163Z,17.30
2022-11-29T12:30:56.340Z,17.30
2022-11-29T12:33:37.090Z,17.30
2022-11-29T12:36:18.688Z,17.30
2022-11-29T12:39:03.927Z,17.30
2022-11-29T12:41:50.901Z,17.30
2022-11-29T12:44:39.486Z,17.30
2022-11-29T12:47:36.739Z,17.30
2022-11-29T12:50:18.249Z,17.30
2022-11-29T12:53:00.292Z,17.30
2022-11-29T12:55:39.993Z,17.30
2022-11-29T12:58:16.667Z,17.30
2022-11-29T13:00:52.784Z,17.30
2022-11-29T13:03:29.048Z,17.30
2022-11-29T13:06:15.451Z,17.30
2022-11-29T13:09:01.326Z,17.30
2022-11-29T13:11:33.692Z,17.30
2022-11-29T13:14:41.044Z,17.30
2022-11-29T13:17:01.805Z,17.30
2022-11-29T13:19:37.843Z,17.30
2022-11-29T13:22:12.353Z,17.20
2022-11-29T13:24:46.882Z,17.20
2022-11-29T13:27:20.105Z,17.20
2022-11-29T13:29:50.300Z,17.20
2022-11-29T13:32:31.305Z,17.30
2022-11-29T13:35:05.417Z,17.20
2022-11-29T13:37:40.099Z,17.20
2022-11-29T13:40:27.158Z,17.30
2022-11-29T13:43:04.602Z,17.20
2022-11-29T13:45:41.956Z,17.20
2022-11-29T13:48:35.074Z,17.20
2022-11-29T13:51:31.350Z,17.20
2022-11-29T13:54:03.239Z,17.20
2022-11-29T13:56:46.602Z,17.20
2022-11-29T13:59:23.890Z,17.20
2022-11-29T14:01:55.257Z,17.20
2022-11-29T14:04:37.231Z,17.20
2022-11-29T14:07:10.237Z,17.20
2022-11-29T14:09:58.852Z,17.20
2022-11-29T14:12:41.150Z,17.20
2022-11-29T14:15:27.773Z,17.20
2022-11-29T14:17:59.242Z,17.20
2022-11-29T14:20:56.798Z,17.10
2022-11-29T14:23:37.883Z,17.20
2022-11-29T14:26:29.284Z,17.10
2022-11-29T14:29:00.817Z,17.20
2022-11-29T14:31:53.363Z,17.20
2022-11-29T14:34:39.237Z,17.20
2022-11-29T14:37:36.266Z,17.10
2022-11-29T14:40:21.177Z,17.10
2022-11-29T14:42:52.903Z,17.10
2022-11-29T14:45:32.917Z,17.10
2022-11-29T14:48:03.085Z,17.10
2022-11-29T14:50:37.666Z,17.10
2022-11-29T14:53:30.573Z,17.10
2022-11-29T14:56:38.921Z,17.10
2022-11-29T14:59:44.933Z,17.10
2022-11-29T15:02:27.488Z,17.10
2022-11-29T15:04:58.411Z,17.10
2022-11-29T15:07:30.581Z,17.10
2022-11-29T15:10:05.568Z,17.10
2022-11-29T15:12:37.624Z,17.10
2022-11-29T15:15:21.081Z,17.10
2022-11-29T15:18:01.088Z,17.10
2022-11-29T15:20:42.315Z,17.10
2022-11-29T15:23:15.776Z,17.10
2022-11-29T15:25:49.692Z,17.10
2022-11-29T15:28:24.184Z,17.10
2022-11-29T15:31:04.660Z,17.10
2022-11-29T15:33:38.803Z,17.10
2022-11-29T15:36:09.724Z,17.10
2022-11-29T15:38:47.405Z,17.10
2022-11-29T15:41:27.612Z,17.10
2022-11-29T15:43:59.602Z,17.10
2022-11-29T15:46:30.475Z,17.00
2022-11-29T15:49:19.299Z,17.00
2022-11-29T15:51:52.256Z,17.10
2022-11-29T15:54:31.328Z,17.00
2022-11-29T15:57:04.262Z,17.00
2022-11-29T15:59:38.571Z,17.00
2022-11-29T16:02:15.680Z,17.00
2022-11-29T16:04:49.584Z,17.00
2022-11-29T16:07:21.276Z,17.00
2022-11-29T16:09:56.385Z,17.00
2022-11-29T16:12:25.933Z,17.00
2022-11-29T16:14:57.174Z,17.00
2022-11-29T16:17:28.259Z,17.00
2022-11-29T16:20:24.845Z,17.00
2022-11-29T16:23:12.617Z,17.00
2022-11-29T16:25:57.050Z,17.00
2022-11-29T16:28:31.137Z,17.00
2022-11-29T16:31:00.984Z,17.00
2022-11-29T16:33:30.179Z,17.00
2022-11-29T16:36:12.502Z,17.00
2022-11-29T16:38:47.066Z,17.00
2022-11-29T16:41:35.230Z,17.00
2022-11-29T16:44:05.638Z,17.00
2022-11-29T16:46:37.478Z,16.90
2022-11-29T16:49:37.007Z,16.90
2022-11-29T16:52:25.441Z,17.00
2022-11-29T16:54:54.646Z,17.00
2022-11-29T16:57:24.290Z,16.90
2022-11-29T16:59:53.439Z,17.00
2022-11-29T17:02:22.687Z,17.00
2022-11-29T17:04:52.739Z,17.00
2022-11-29T17:07:29.582Z,17.10
2022-11-29T17:09:59.486Z,17.10
2022-11-29T17:12:28.764Z,17.20
2022-11-29T17:14:57.963Z,17.50
2022-11-29T17:17:27.507Z,17.80
2022-11-29T17:19:56.720Z,18.00
2022-11-29T17:22:27.336Z,18.20
2022-11-29T17:24:56.681Z,18.30
2022-11-29T17:27:26.118Z,18.40
2022-11-29T17:29:55.382Z,18.50
2022-11-29T17:32:26.799Z,18.60
2022-11-29T17:34:56.420Z,18.70
2022-11-29T17:37:26.972Z,18.80
2022-11-29T17:39:56.787Z,18.90
2022-11-29T17:42:26.065Z,19.00
2022-11-29T17:44:55.424Z,19.00
2022-11-29T17:47:24.605Z,19.10
2022-11-29T17:49:53.730Z,19.20
2022-11-29T17:52:22.914Z,19.30
2022-11-29T17:54:53.611Z,19.30
2022-11-29T17:57:22.789Z,19.40
2022-11-29T17:59:52.025Z,19.40
2022-11-29T18:02:21.205Z,19.60
2022-11-29T18:04:50.413Z,19.60
2022-11-29T18:07:19.640Z,19.50
2022-11-29T18:09:49.153Z,19.50
2022-11-29T18:12:20.410Z,19.40
2022-11-29T18:14:51.075Z,19.40
2022-11-29T18:17:20.314Z,19.40
2022-11-29T18:19:49.394Z,19.40
2022-11-29T18:22:18.576Z,19.30
2022-11-29T18:24:47.845Z,19.30
2022-11-29T18:27:16.996Z,19.30
2022-11-29T18:29:47.819Z,19.40
2022-11-29T18:32:17.288Z,19.30
2022-11-29T18:34:46.620Z,19.30
2022-11-29T18:37:27.565Z,19.30
2022-11-29T18:40:05.483Z,19.40
2022-11-29T18:42:34.624Z,19.30
2022-11-29T18:45:05.955Z,19.40
2022-11-29T18:47:35.586Z,19.40
2022-11-29T18:50:05.143Z,19.40
2022-11-29T18:52:39.311Z,19.40
2022-11-29T18:55:10.637Z,19.40
2022-11-29T18:57:40.054Z,19.40
2022-11-29T19:00:12.246Z,19.40
2022-11-29T19:02:42.033Z,19.40
2022-11-29T19:05:11.731Z,19.50
2022-11-29T19:07:41.140Z,19.50
2022-11-29T19:10:11.218Z,19.50
2022-11-29T19:12:40.708Z,19.50
2022-11-29T19:15:12.480Z,19.50
2022-11-29T19:17:43.271Z,19.50
2022-11-29T19:20:14.076Z,19.60
2022-11-29T19:22:43.426Z,19.60
2022-11-29T19:25:12.767Z,19.70
2022-11-29T19:27:43.894Z,19.70
2022-11-29T19:30:17.544Z,19.70
2022-11-29T19:32:46.958Z,19.80
2022-11-29T19:35:16.410Z,19.80
2022-11-29T19:37:46.358Z,19.80
2022-11-29T19:40:15.810Z,19.90
2022-11-29T19:42:45.742Z,19.90
2022-11-29T19:45:18.033Z,19.90
2022-11-29T19:47:47.611Z,19.90
2022-11-29T19:50:17.294Z,20.00
2022-11-29T19:52:46.727Z,19.90
2022-11-29T19:55:16.169Z,19.90
2022-11-29T19:57:45.401Z,20.00
2022-11-29T20:00:17.601Z,20.00
2022-11-29T20:02:46.877Z,20.00
2022-11-29T20:05:16.578Z,20.00
2022-11-29T20:07:45.823Z,20.00
2022-11-29T20:10:15.307Z,20.10
2022-11-29T20:12:44.599Z,20.10
2022-11-29T20:15:15.550Z,20.10
2022-11-29T20:17:44.955Z,20.10
2022-11-29T20:20:15.140Z,20.10
2022-11-29T20:22:44.615Z,20.10
2022-11-29T20:25:14.408Z,20.10
2022-11-29T20:27:44.196Z,20.10
2022-11-29T20:30:16.705Z,20.10
2022-11-29T20:32:47.195Z,20.20
2022-11-29T20:35:17.483Z,20.20
2022-11-29T20:38:12.227Z,20.20
2022-11-29T20:40:51.444Z,20.30
2022-11-29T20:43:25.581Z,20.30
2022-11-29T20:45:59.056Z,20.30
2022-11-29T20:48:29.633Z,20.30
2022-11-29T20:51:01.519Z,20.30
2022-11-29T20:53:37.198Z,20.40
2022-11-29T20:56:08.955Z,20.40
2022-11-29T20:58:40.651Z,20.40
2022-11-29T21:01:15.470Z,20.50
2022-11-29T21:03:45.225Z,20.50
2022-11-29T21:06:14.543Z,20.50
2022-11-29T21:08:43.857Z,20.50
2022-11-29T21:11:13.622Z,20.50
2022-11-29T21:13:44.322Z,20.40
2022-11-29T21:16:16.544Z,20.30
2022-11-29T21:18:46.429Z,20.20
2022-11-29T21:21:27.572Z,20.20
2022-11-29T21:24:04.617Z,20.10
2022-11-29T21:26:41.756Z,20.00
2022-11-29T21:29:17.757Z,19.90
2022-11-29T21:31:50.184Z,19.90
2022-11-29T21:34:19.421Z,19.80
2022-11-29T21:36:54.612Z,19.80
2022-11-29T21:39:25.922Z,19.80
2022-11-29T21:41:55.069Z,19.70
2022-11-29T21:44:24.193Z,19.70
2022-11-29T21:46:54.778Z,19.70
2022-11-29T21:49:24.126Z,19.60
2022-11-29T21:51:53.199Z,19.60
2022-11-29T21:54:22.427Z,19.50
2022-11-29T21:56:51.536Z,19.50
2022-11-29T21:59:20.639Z,19.50
2022-11-29T22:01:49.922Z,19.50
2022-11-29T22:04:20.620Z,19.40
2022-11-29T22:06:49.751Z,19.40
2022-11-29T22:09:18.886Z,19.40
2022-11-29T22:11:47.985Z,19.40
2022-11-29T22:14:18.503Z,19.40
2022-11-29T22:16:49.750Z,19.30
2022-11-29T22:19:22.209Z,19.30
2022-11-29T22:21:52.861Z,19.30
2022-11-29T22:24:23.355Z,19.30
2022-11-29T22:26:53.949Z,19.30
2022-11-29T22:29:23.336Z,19.30
2022-11-29T22:31:54.725Z,19.30
2022-11-29T22:34:26.792Z,19.20
2022-11-29T22:36:56.115Z,19.20
2022-11-29T22:39:25.749Z,19.20
2022-11-29T22:41:55.411Z,19.20
2022-11-29T22:44:25.196Z,19.20
2022-11-29T22:46:54.576Z,19.10
2022-11-29T22:49:25.202Z,19.10
2022-11-29T22:51:55.062Z,19.10
2022-11-29T22:54:24.249Z,19.10
2022-11-29T22:56:53.525Z,19.10
2022-11-29T22:59:22.656Z,19.10
2022-11-29T23:01:51.851Z,19.00
2022-11-29T23:04:21.054Z,19.00
2022-11-29T23:06:51.542Z,19.00
2022-11-29T23:09:22.636Z,19.00
2022-11-29T23:11:55.962Z,19.00
2022-11-29T23:14:25.572Z,19.00
2022-11-29T23:16:54.802Z,18.90
2022-11-29T23:19:24.181Z,18.90
2022-11-29T23:21:56.570Z,18.90
2022-11-29T23:24:25.915Z,18.90
2022-11-29T23:26:55.051Z,18.90
2022-11-29T23:29:24.155Z,18.90
2022-11-29T23:31:53.311Z,18.80
2022-11-29T23:34:22.439Z,18.80
2022-11-29T23:36:53.298Z,18.80
2022-11-29T23:39:24.078Z,18.80
2022-11-29T23:41:53.334Z,18.80
2022-11-29T23:44:22.399Z,18.80
2022-11-29T23:46:51.522Z,18.80
2022-11-29T23:49:20.643Z,18.80
2022-11-29T23:51:49.742Z,18.70
2022-11-29T23:54:18.920Z,18.70
2022-11-29T23:56:49.412Z,18.70
2022-11-29T23:59:18.549Z,18.70
